sensor_id;sensor_type;location;lat;lon;timestamp;temperature;humidity
7232;DHT22;3657;49.630;11.018;2023-05-07T00:02:12;18.20;89.60
7232;DHT22;3657;49.630;11.018;2023-05-07T00:04:41;18.20;89.80
7232;DHT22;3657;49.630;11.018;2023-05-07T00:07:07;18.20;89.90
7232;DHT22;3657;49.630;11.018;2023-05-07T00:09:34;18.10;89.80
7232;DHT22;3657;49.630;11.018;2023-05-07T00:12:01;18.10;89.90
7232;DHT22;3657;49.630;11.018;2023-05-07T00:14:27;18.10;90.00
7232;DHT22;3657;49.630;11.018;2023-05-07T00:16:55;18.10;90.00
7232;DHT22;3657;49.630;11.018;2023-05-07T00:19:22;18.00;90.00
7232;DHT22;3657;49.630;11.018;2023-05-07T00:21:50;18.00;90.00
7232;DHT22;3657;49.630;11.018;2023-05-07T00:24:19;18.00;90.00
7232;DHT22;3657;49.630;11.018;2023-05-07T00:26:45;18.00;90.10
7232;DHT22;3657;49.630;11.018;2023-05-07T00:29:12;17.90;90.10
7232;DHT22;3657;49.630;11.018;2023-05-07T00:31:39;17.90;90.10
7232;DHT22;3657;49.630;11.018;2023-05-07T00:34:05;17.90;90.20
7232;DHT22;3657;49.630;11.018;2023-05-07T00:36:32;17.80;90.10
7232;DHT22;3657;49.630;11.018;2023-05-07T00:39:00;17.80;90.20
7232;DHT22;3657;49.630;11.018;2023-05-07T00:41:28;17.80;90.20
7232;DHT22;3657;49.630;11.018;2023-05-07T00:43:56;17.70;90.20
7232;DHT22;3657;49.630;11.018;2023-05-07T00:46:23;17.70;90.30
7232;DHT22;3657;49.630;11.018;2023-05-07T00:48:51;17.70;90.30
7232;DHT22;3657;49.630;11.018;2023-05-07T00:51:17;17.60;90.30
7232;DHT22;3657;49.630;11.018;2023-05-07T00:53:45;17.60;90.30
7232;DHT22;3657;49.630;11.018;2023-05-07T00:56:13;17.60;90.30
7232;DHT22;3657;49.630;11.018;2023-05-07T00:58:40;17.60;90.60
7232;DHT22;3657;49.630;11.018;2023-05-07T01:01:07;17.60;90.40
7232;DHT22;3657;49.630;11.018;2023-05-07T01:03:34;17.50;90.40
7232;DHT22;3657;49.630;11.018;2023-05-07T01:06:02;17.50;90.40
7232;DHT22;3657;49.630;11.018;2023-05-07T01:08:30;17.50;90.50
7232;DHT22;3657;49.630;11.018;2023-05-07T01:10:57;17.40;90.40
7232;DHT22;3657;49.630;11.018;2023-05-07T01:13:25;17.50;90.50
7232;DHT22;3657;49.630;11.018;2023-05-07T01:15:53;17.40;90.40
7232;DHT22;3657;49.630;11.018;2023-05-07T01:18:20;17.40;90.50
7232;DHT22;3657;49.630;11.018;2023-05-07T01:20:47;17.40;90.50
7232;DHT22;3657;49.630;11.018;2023-05-07T01:23:15;17.40;90.50
7232;DHT22;3657;49.630;11.018;2023-05-07T01:25:42;17.30;90.50
7232;DHT22;3657;49.630;11.018;2023-05-07T01:28:09;17.30;90.50
7232;DHT22;3657;49.630;11.018;2023-05-07T01:30:36;17.30;90.60
7232;DHT22;3657;49.630;11.018;2023-05-07T01:33:08;17.30;90.60
7232;DHT22;3657;49.630;11.018;2023-05-07T01:35:39;17.30;90.60
7232;DHT22;3657;49.630;11.018;2023-05-07T01:38:07;17.20;90.80
7232;DHT22;3657;49.630;11.018;2023-05-07T01:40:35;17.20;90.60
7232;DHT22;3657;49.630;11.018;2023-05-07T01:43:02;17.20;90.60
7232;DHT22;3657;49.630;11.018;2023-05-07T01:45:30;17.20;90.70
7232;DHT22;3657;49.630;11.018;2023-05-07T01:47:58;17.20;90.70
7232;DHT22;3657;49.630;11.018;2023-05-07T01:50:25;17.20;90.70
7232;DHT22;3657;49.630;11.018;2023-05-07T01:52:52;17.10;90.70
7232;DHT22;3657;49.630;11.018;2023-05-07T01:55:19;17.10;90.70
7232;DHT22;3657;49.630;11.018;2023-05-07T01:57:47;17.10;90.80
7232;DHT22;3657;49.630;11.018;2023-05-07T02:00:14;17.10;90.80
7232;DHT22;3657;49.630;11.018;2023-05-07T02:02:41;17.00;90.80
7232;DHT22;3657;49.630;11.018;2023-05-07T02:05:08;17.00;90.80
7232;DHT22;3657;49.630;11.018;2023-05-07T02:07:35;17.00;90.80
7232;DHT22;3657;49.630;11.018;2023-05-07T02:10:02;17.00;90.80
7232;DHT22;3657;49.630;11.018;2023-05-07T02:12:29;17.00;90.90
7232;DHT22;3657;49.630;11.018;2023-05-07T02:14:57;16.90;90.80
7232;DHT22;3657;49.630;11.018;2023-05-07T02:17:24;16.90;90.90
7232;DHT22;3657;49.630;11.018;2023-05-07T02:19:50;16.90;90.90
7232;DHT22;3657;49.630;11.018;2023-05-07T02:22:17;16.90;91.00
7232;DHT22;3657;49.630;11.018;2023-05-07T02:24:44;16.80;90.90
7232;DHT22;3657;49.630;11.018;2023-05-07T02:27:11;16.80;91.00
7232;DHT22;3657;49.630;11.018;2023-05-07T02:29:37;16.80;91.00
7232;DHT22;3657;49.630;11.018;2023-05-07T02:32:06;16.80;91.00
7232;DHT22;3657;49.630;11.018;2023-05-07T02:34:33;16.80;91.10
7232;DHT22;3657;49.630;11.018;2023-05-07T02:36:59;16.80;91.10
7232;DHT22;3657;49.630;11.018;2023-05-07T02:39:26;16.70;91.10
7232;DHT22;3657;49.630;11.018;2023-05-07T02:41:53;16.70;91.10
7232;DHT22;3657;49.630;11.018;2023-05-07T02:44:19;16.70;91.10
7232;DHT22;3657;49.630;11.018;2023-05-07T02:46:46;16.70;91.20
7232;DHT22;3657;49.630;11.018;2023-05-07T02:49:14;16.60;91.20
7232;DHT22;3657;49.630;11.018;2023-05-07T02:51:41;16.60;91.20
7232;DHT22;3657;49.630;11.018;2023-05-07T02:54:07;16.60;91.20
7232;DHT22;3657;49.630;11.018;2023-05-07T02:56:34;16.60;91.20
7232;DHT22;3657;49.630;11.018;2023-05-07T02:59:01;16.60;91.30
7232;DHT22;3657;49.630;11.018;2023-05-07T03:01:27;16.50;91.20
7232;DHT22;3657;49.630;11.018;2023-05-07T03:03:54;16.50;91.30
7232;DHT22;3657;49.630;11.018;2023-05-07T03:06:22;16.50;91.30
7232;DHT22;3657;49.630;11.018;2023-05-07T03:08:49;16.50;91.30
7232;DHT22;3657;49.630;11.018;2023-05-07T03:11:15;16.50;91.40
7232;DHT22;3657;49.630;11.018;2023-05-07T03:13:42;16.40;91.30
7232;DHT22;3657;49.630;11.018;2023-05-07T03:16:08;16.40;91.60
7232;DHT22;3657;49.630;11.018;2023-05-07T03:18:35;16.40;91.60
7232;DHT22;3657;49.630;11.018;2023-05-07T03:21:02;16.40;91.50
7232;DHT22;3657;49.630;11.018;2023-05-07T03:23:30;16.30;91.50
7232;DHT22;3657;49.630;11.018;2023-05-07T03:25:57;16.30;91.40
7232;DHT22;3657;49.630;11.018;2023-05-07T03:28:23;16.30;91.50
7232;DHT22;3657;49.630;11.018;2023-05-07T03:30:50;16.30;91.50
7232;DHT22;3657;49.630;11.018;2023-05-07T03:33:17;16.20;91.50
7232;DHT22;3657;49.630;11.018;2023-05-07T03:35:43;16.20;91.50
7232;DHT22;3657;49.630;11.018;2023-05-07T03:38:10;16.20;91.50
7232;DHT22;3657;49.630;11.018;2023-05-07T03:40:38;16.20;91.50
7232;DHT22;3657;49.630;11.018;2023-05-07T03:43:05;16.20;91.50
7232;DHT22;3657;49.630;11.018;2023-05-07T03:45:32;16.20;91.50
7232;DHT22;3657;49.630;11.018;2023-05-07T03:47:58;16.20;91.50
7232;DHT22;3657;49.630;11.018;2023-05-07T03:50:25;16.10;91.50
7232;DHT22;3657;49.630;11.018;2023-05-07T03:52:52;16.10;91.50
7232;DHT22;3657;49.630;11.018;2023-05-07T03:55:18;16.10;91.80
7232;DHT22;3657;49.630;11.018;2023-05-07T03:57:46;16.00;91.50
7232;DHT22;3657;49.630;11.018;2023-05-07T04:00:14;16.00;91.50
7232;DHT22;3657;49.630;11.018;2023-05-07T04:02:40;16.00;91.60
7232;DHT22;3657;49.630;11.018;2023-05-07T04:05:07;15.90;91.60
7232;DHT22;3657;49.630;11.018;2023-05-07T04:07:34;15.90;91.60
7232;DHT22;3657;49.630;11.018;2023-05-07T04:10:01;15.90;91.60
7232;DHT22;3657;49.630;11.018;2023-05-07T04:12:28;15.90;91.60
7232;DHT22;3657;49.630;11.018;2023-05-07T04:14:56;15.90;91.60
7232;DHT22;3657;49.630;11.018;2023-05-07T04:17:23;15.90;91.60
7232;DHT22;3657;49.630;11.018;2023-05-07T04:19:49;15.80;91.60
7232;DHT22;3657;49.630;11.018;2023-05-07T04:22:16;15.80;91.60
7232;DHT22;3657;49.630;11.018;2023-05-07T04:24:43;15.80;91.60
7232;DHT22;3657;49.630;11.018;2023-05-07T04:27:09;15.80;91.60
7232;DHT22;3657;49.630;11.018;2023-05-07T04:29:36;15.80;91.60
7232;DHT22;3657;49.630;11.018;2023-05-07T04:32:05;15.80;91.60
7232;DHT22;3657;49.630;11.018;2023-05-07T04:34:32;15.80;91.60
7232;DHT22;3657;49.630;11.018;2023-05-07T04:36:59;15.80;91.60
7232;DHT22;3657;49.630;11.018;2023-05-07T04:39:25;15.80;91.60
7232;DHT22;3657;49.630;11.018;2023-05-07T04:41:52;15.80;91.80
7232;DHT22;3657;49.630;11.018;2023-05-07T04:44:19;15.80;91.70
7232;DHT22;3657;49.630;11.018;2023-05-07T04:46:46;15.80;91.60
7232;DHT22;3657;49.630;11.018;2023-05-07T04:49:14;15.80;91.60
7232;DHT22;3657;49.630;11.018;2023-05-07T04:51:41;15.80;91.70
7232;DHT22;3657;49.630;11.018;2023-05-07T04:54:08;15.90;91.60
7232;DHT22;3657;49.630;11.018;2023-05-07T04:56:35;15.90;91.70
7232;DHT22;3657;49.630;11.018;2023-05-07T04:59:02;15.90;91.60
7232;DHT22;3657;49.630;11.018;2023-05-07T05:01:28;16.00;91.60
7232;DHT22;3657;49.630;11.018;2023-05-07T05:03:55;16.10;91.60
7232;DHT22;3657;49.630;11.018;2023-05-07T05:06:23;16.10;91.40
7232;DHT22;3657;49.630;11.018;2023-05-07T05:08:50;16.10;91.40
7232;DHT22;3657;49.630;11.018;2023-05-07T05:11:16;16.20;91.90
7232;DHT22;3657;49.630;11.018;2023-05-07T05:13:43;16.20;92.00
7232;DHT22;3657;49.630;11.018;2023-05-07T05:16:10;16.20;92.40
7232;DHT22;3657;49.630;11.018;2023-05-07T05:18:36;16.20;91.80
7232;DHT22;3657;49.630;11.018;2023-05-07T05:21:03;16.30;92.60
7232;DHT22;3657;49.630;11.018;2023-05-07T05:23:31;16.30;92.30
7232;DHT22;3657;49.630;11.018;2023-05-07T05:25:58;16.30;91.80
7232;DHT22;3657;49.630;11.018;2023-05-07T05:28:25;16.30;92.10
7232;DHT22;3657;49.630;11.018;2023-05-07T05:30:53;16.20;92.00
7232;DHT22;3657;49.630;11.018;2023-05-07T05:33:19;16.20;92.80
7232;DHT22;3657;49.630;11.018;2023-05-07T05:35:46;16.20;92.20
7232;DHT22;3657;49.630;11.018;2023-05-07T05:38:13;16.10;92.50
7232;DHT22;3657;49.630;11.018;2023-05-07T05:40:41;16.10;92.80
7232;DHT22;3657;49.630;11.018;2023-05-07T05:43:08;16.10;92.50
7232;DHT22;3657;49.630;11.018;2023-05-07T05:45:34;16.10;92.70
7232;DHT22;3657;49.630;11.018;2023-05-07T05:48:01;16.10;93.30
7232;DHT22;3657;49.630;11.018;2023-05-07T05:50:27;16.10;93.10
7232;DHT22;3657;49.630;11.018;2023-05-07T05:52:54;16.10;92.90
7232;DHT22;3657;49.630;11.018;2023-05-07T05:55:21;16.10;94.00
7232;DHT22;3657;49.630;11.018;2023-05-07T05:57:50;16.20;93.40
7232;DHT22;3657;49.630;11.018;2023-05-07T06:00:17;16.30;93.00
7232;DHT22;3657;49.630;11.018;2023-05-07T06:02:44;16.40;93.20
7232;DHT22;3657;49.630;11.018;2023-05-07T06:05:10;16.40;94.00
7232;DHT22;3657;49.630;11.018;2023-05-07T06:07:37;16.40;94.30
7232;DHT22;3657;49.630;11.018;2023-05-07T06:10:04;16.50;94.70
7232;DHT22;3657;49.630;11.018;2023-05-07T06:12:31;16.40;94.40
7232;DHT22;3657;49.630;11.018;2023-05-07T06:14:59;16.50;94.20
7232;DHT22;3657;49.630;11.018;2023-05-07T06:17:26;16.50;94.30
7232;DHT22;3657;49.630;11.018;2023-05-07T06:19:53;16.50;94.60
7232;DHT22;3657;49.630;11.018;2023-05-07T06:22:20;16.60;95.00
7232;DHT22;3657;49.630;11.018;2023-05-07T06:24:47;16.60;94.90
7232;DHT22;3657;49.630;11.018;2023-05-07T06:27:14;16.60;94.50
7232;DHT22;3657;49.630;11.018;2023-05-07T06:29:40;16.70;95.30
7232;DHT22;3657;49.630;11.018;2023-05-07T06:32:10;16.70;94.80
7232;DHT22;3657;49.630;11.018;2023-05-07T06:34:37;16.70;95.10
7232;DHT22;3657;49.630;11.018;2023-05-07T06:37:04;16.60;95.50
7232;DHT22;3657;49.630;11.018;2023-05-07T06:39:31;16.70;95.40
7232;DHT22;3657;49.630;11.018;2023-05-07T06:41:58;16.70;95.40
7232;DHT22;3657;49.630;11.018;2023-05-07T06:44:24;16.70;95.40
7232;DHT22;3657;49.630;11.018;2023-05-07T06:46:51;16.70;95.50
7232;DHT22;3657;49.630;11.018;2023-05-07T06:49:19;16.70;95.60
7232;DHT22;3657;49.630;11.018;2023-05-07T06:51:46;16.70;95.70
7232;DHT22;3657;49.630;11.018;2023-05-07T06:54:13;16.80;95.90
7232;DHT22;3657;49.630;11.018;2023-05-07T06:56:39;16.70;96.00
7232;DHT22;3657;49.630;11.018;2023-05-07T06:59:06;16.80;96.10
7232;DHT22;3657;49.630;11.018;2023-05-07T07:01:33;16.80;95.90
7232;DHT22;3657;49.630;11.018;2023-05-07T07:04:00;16.90;95.70
7232;DHT22;3657;49.630;11.018;2023-05-07T07:06:28;17.00;95.90
7232;DHT22;3657;49.630;11.018;2023-05-07T07:08:57;17.00;95.60
7232;DHT22;3657;49.630;11.018;2023-05-07T07:11:23;17.10;95.50
7232;DHT22;3657;49.630;11.018;2023-05-07T07:13:50;17.30;95.90
7232;DHT22;3657;49.630;11.018;2023-05-07T07:16:17;17.40;95.90
7232;DHT22;3657;49.630;11.018;2023-05-07T07:18:43;17.60;96.00
7232;DHT22;3657;49.630;11.018;2023-05-07T07:21:10;17.80;95.90
7232;DHT22;3657;49.630;11.018;2023-05-07T07:23:38;18.00;95.50
7232;DHT22;3657;49.630;11.018;2023-05-07T07:26:05;18.20;94.90
7232;DHT22;3657;49.630;11.018;2023-05-07T07:28:32;18.50;94.70
7232;DHT22;3657;49.630;11.018;2023-05-07T07:30:59;18.80;94.70
7232;DHT22;3657;49.630;11.018;2023-05-07T07:33:25;18.90;94.50
7232;DHT22;3657;49.630;11.018;2023-05-07T07:35:52;19.10;94.80
7232;DHT22;3657;49.630;11.018;2023-05-07T07:38:19;18.90;93.90
7232;DHT22;3657;49.630;11.018;2023-05-07T07:40:48;18.90;94.90
7232;DHT22;3657;49.630;11.018;2023-05-07T07:43:15;18.90;95.70
7232;DHT22;3657;49.630;11.018;2023-05-07T07:45:42;18.90;95.30
7232;DHT22;3657;49.630;11.018;2023-05-07T07:48:09;18.90;95.70
7232;DHT22;3657;49.630;11.018;2023-05-07T07:50:36;18.90;95.70
7232;DHT22;3657;49.630;11.018;2023-05-07T07:53:02;18.90;96.10
7232;DHT22;3657;49.630;11.018;2023-05-07T07:55:29;18.80;95.40
7232;DHT22;3657;49.630;11.018;2023-05-07T07:57:58;18.80;96.20
7232;DHT22;3657;49.630;11.018;2023-05-07T08:00:25;18.80;95.60
7232;DHT22;3657;49.630;11.018;2023-05-07T08:02:51;18.80;95.60
7232;DHT22;3657;49.630;11.018;2023-05-07T08:05:18;18.80;95.30
7232;DHT22;3657;49.630;11.018;2023-05-07T08:07:45;18.90;95.90
7232;DHT22;3657;49.630;11.018;2023-05-07T08:10:17;18.70;95.10
7232;DHT22;3657;49.630;11.018;2023-05-07T08:12:46;18.90;94.80
7232;DHT22;3657;49.630;11.018;2023-05-07T08:15:15;18.90;94.90
7232;DHT22;3657;49.630;11.018;2023-05-07T08:17:42;19.20;96.40
7232;DHT22;3657;49.630;11.018;2023-05-07T08:20:09;19.40;96.40
7232;DHT22;3657;49.630;11.018;2023-05-07T08:22:36;19.50;94.70
7232;DHT22;3657;49.630;11.018;2023-05-07T08:25:03;19.50;95.10
7232;DHT22;3657;49.630;11.018;2023-05-07T08:27:30;19.50;94.40
7232;DHT22;3657;49.630;11.018;2023-05-07T08:29:57;19.50;94.20
7232;DHT22;3657;49.630;11.018;2023-05-07T08:32:25;19.50;94.90
7232;DHT22;3657;49.630;11.018;2023-05-07T08:34:53;19.60;95.20
7232;DHT22;3657;49.630;11.018;2023-05-07T08:37:20;19.70;93.80
7232;DHT22;3657;49.630;11.018;2023-05-07T08:39:47;19.90;95.00
7232;DHT22;3657;49.630;11.018;2023-05-07T08:42:16;20.20;93.80
7232;DHT22;3657;49.630;11.018;2023-05-07T08:44:45;20.60;94.50
7232;DHT22;3657;49.630;11.018;2023-05-07T08:47:12;20.80;94.80
7232;DHT22;3657;49.630;11.018;2023-05-07T08:49:40;21.00;94.90
7232;DHT22;3657;49.630;11.018;2023-05-07T08:52:07;21.20;92.50
7232;DHT22;3657;49.630;11.018;2023-05-07T08:54:33;21.50;93.80
7232;DHT22;3657;49.630;11.018;2023-05-07T08:57:02;21.70;93.30
7232;DHT22;3657;49.630;11.018;2023-05-07T08:59:29;22.00;94.00
7232;DHT22;3657;49.630;11.018;2023-05-07T09:01:56;22.20;94.50
7232;DHT22;3657;49.630;11.018;2023-05-07T09:04:23;22.20;92.80
7232;DHT22;3657;49.630;11.018;2023-05-07T09:06:51;22.30;92.80
7232;DHT22;3657;49.630;11.018;2023-05-07T09:09:17;22.30;92.70
7232;DHT22;3657;49.630;11.018;2023-05-07T09:11:44;22.50;92.30
7232;DHT22;3657;49.630;11.018;2023-05-07T09:14:11;22.80;93.00
7232;DHT22;3657;49.630;11.018;2023-05-07T09:16:38;22.70;92.20
7232;DHT22;3657;49.630;11.018;2023-05-07T09:19:05;22.60;92.90
7232;DHT22;3657;49.630;11.018;2023-05-07T09:21:32;22.70;93.30
7232;DHT22;3657;49.630;11.018;2023-05-07T09:24:00;23.00;92.10
7232;DHT22;3657;49.630;11.018;2023-05-07T09:26:26;23.20;94.80
7232;DHT22;3657;49.630;11.018;2023-05-07T09:28:53;23.10;92.70
7232;DHT22;3657;49.630;11.018;2023-05-07T09:31:20;23.00;90.30
7232;DHT22;3657;49.630;11.018;2023-05-07T09:33:48;22.70;91.30
7232;DHT22;3657;49.630;11.018;2023-05-07T09:36:15;23.00;90.20
7232;DHT22;3657;49.630;11.018;2023-05-07T09:38:42;22.80;90.10
7232;DHT22;3657;49.630;11.018;2023-05-07T09:41:11;22.70;91.50
7232;DHT22;3657;49.630;11.018;2023-05-07T09:43:39;22.60;90.60
7232;DHT22;3657;49.630;11.018;2023-05-07T09:46:08;22.60;90.20
7232;DHT22;3657;49.630;11.018;2023-05-07T09:48:38;22.70;91.00
7232;DHT22;3657;49.630;11.018;2023-05-07T09:51:11;22.90;90.70
7232;DHT22;3657;49.630;11.018;2023-05-07T09:53:42;23.20;93.20
7232;DHT22;3657;49.630;11.018;2023-05-07T09:56:13;23.40;89.60
7232;DHT22;3657;49.630;11.018;2023-05-07T09:58:41;23.70;92.10
7232;DHT22;3657;49.630;11.018;2023-05-07T10:01:10;24.10;91.50
7232;DHT22;3657;49.630;11.018;2023-05-07T10:03:39;24.50;90.30
7232;DHT22;3657;49.630;11.018;2023-05-07T10:06:07;24.20;87.00
7232;DHT22;3657;49.630;11.018;2023-05-07T10:08:36;24.10;90.40
7232;DHT22;3657;49.630;11.018;2023-05-07T10:11:03;24.10;90.10
7232;DHT22;3657;49.630;11.018;2023-05-07T10:13:32;24.10;88.30
7232;DHT22;3657;49.630;11.018;2023-05-07T10:16:02;24.40;90.30
7232;DHT22;3657;49.630;11.018;2023-05-07T10:18:30;24.50;91.10
7232;DHT22;3657;49.630;11.018;2023-05-07T10:21:02;24.30;86.10
7232;DHT22;3657;49.630;11.018;2023-05-07T10:23:31;24.10;90.00
7232;DHT22;3657;49.630;11.018;2023-05-07T10:25:59;24.00;91.10
7232;DHT22;3657;49.630;11.018;2023-05-07T10:28:27;24.00;87.30
7232;DHT22;3657;49.630;11.018;2023-05-07T10:31:07;23.90;92.60
7232;DHT22;3657;49.630;11.018;2023-05-07T10:33:34;24.10;89.60
7232;DHT22;3657;49.630;11.018;2023-05-07T10:36:02;24.30;90.60
7232;DHT22;3657;49.630;11.018;2023-05-07T10:38:31;24.30;90.20
7232;DHT22;3657;49.630;11.018;2023-05-07T10:40:58;24.10;91.30
7232;DHT22;3657;49.630;11.018;2023-05-07T10:43:24;24.10;88.00
7232;DHT22;3657;49.630;11.018;2023-05-07T10:46:14;23.90;89.30
7232;DHT22;3657;49.630;11.018;2023-05-07T10:49:10;24.00;91.90
7232;DHT22;3657;49.630;11.018;2023-05-07T10:51:41;24.30;91.70
7232;DHT22;3657;49.630;11.018;2023-05-07T10:54:21;24.40;92.80
7232;DHT22;3657;49.630;11.018;2023-05-07T10:56:49;24.40;87.00
7232;DHT22;3657;49.630;11.018;2023-05-07T10:59:33;24.40;88.80
7232;DHT22;3657;49.630;11.018;2023-05-07T11:02:08;24.30;90.50
7232;DHT22;3657;49.630;11.018;2023-05-07T11:04:36;24.40;90.50
7232;DHT22;3657;49.630;11.018;2023-05-07T11:07:31;24.30;91.10
7232;DHT22;3657;49.630;11.018;2023-05-07T11:10:05;24.70;89.40
7232;DHT22;3657;49.630;11.018;2023-05-07T11:12:49;24.80;91.10
7232;DHT22;3657;49.630;11.018;2023-05-07T11:15:41;24.90;89.90
7232;DHT22;3657;49.630;11.018;2023-05-07T11:18:10;24.90;87.10
7232;DHT22;3657;49.630;11.018;2023-05-07T11:20:51;24.90;89.80
7232;DHT22;3657;49.630;11.018;2023-05-07T11:23:56;24.90;88.70
7232;DHT22;3657;49.630;11.018;2023-05-07T11:28:54;25.00;92.40
7232;DHT22;3657;49.630;11.018;2023-05-07T11:31:24;24.80;85.70
7232;DHT22;3657;49.630;11.018;2023-05-07T11:33:53;24.80;85.80
7232;DHT22;3657;49.630;11.018;2023-05-07T11:36:23;25.00;87.70
7232;DHT22;3657;49.630;11.018;2023-05-07T11:38:49;25.10;90.00
7232;DHT22;3657;49.630;11.018;2023-05-07T11:41:16;25.20;89.60
7232;DHT22;3657;49.630;11.018;2023-05-07T11:43:55;25.00;86.50
7232;DHT22;3657;49.630;11.018;2023-05-07T11:46:22;25.00;86.60
7232;DHT22;3657;49.630;11.018;2023-05-07T11:48:49;25.00;90.50
7232;DHT22;3657;49.630;11.018;2023-05-07T11:51:20;25.00;88.00
7232;DHT22;3657;49.630;11.018;2023-05-07T11:53:48;25.00;87.10
7232;DHT22;3657;49.630;11.018;2023-05-07T11:56:16;24.90;87.40
7232;DHT22;3657;49.630;11.018;2023-05-07T11:58:45;24.90;90.90
7232;DHT22;3657;49.630;11.018;2023-05-07T12:01:13;25.00;87.80
7232;DHT22;3657;49.630;11.018;2023-05-07T12:03:41;25.00;90.10
7232;DHT22;3657;49.630;11.018;2023-05-07T12:06:09;25.20;90.90
7232;DHT22;3657;49.630;11.018;2023-05-07T12:08:38;25.40;84.80
7232;DHT22;3657;49.630;11.018;2023-05-07T12:11:09;25.50;90.70
7232;DHT22;3657;49.630;11.018;2023-05-07T12:13:37;25.70;87.20
7232;DHT22;3657;49.630;11.018;2023-05-07T12:16:05;25.90;90.20
7232;DHT22;3657;49.630;11.018;2023-05-07T12:18:33;26.00;89.90
7232;DHT22;3657;49.630;11.018;2023-05-07T12:21:01;26.00;87.10
7232;DHT22;3657;49.630;11.018;2023-05-07T12:23:28;26.10;88.70
7232;DHT22;3657;49.630;11.018;2023-05-07T12:25:56;26.20;83.60
7232;DHT22;3657;49.630;11.018;2023-05-07T12:28:23;26.10;84.00
7232;DHT22;3657;49.630;11.018;2023-05-07T12:30:50;26.00;90.80
7232;DHT22;3657;49.630;11.018;2023-05-07T12:33:18;26.10;91.10
7232;DHT22;3657;49.630;11.018;2023-05-07T12:35:47;26.10;88.40
7232;DHT22;3657;49.630;11.018;2023-05-07T12:38:16;26.20;86.90
7232;DHT22;3657;49.630;11.018;2023-05-07T12:40:43;26.30;90.00
7232;DHT22;3657;49.630;11.018;2023-05-07T12:43:16;26.40;87.40
7232;DHT22;3657;49.630;11.018;2023-05-07T12:45:45;26.40;84.20
7232;DHT22;3657;49.630;11.018;2023-05-07T12:48:13;26.40;87.70
7232;DHT22;3657;49.630;11.018;2023-05-07T12:50:40;26.60;89.60
7232;DHT22;3657;49.630;11.018;2023-05-07T12:53:08;26.70;84.70
7232;DHT22;3657;49.630;11.018;2023-05-07T12:55:43;26.80;84.40
7232;DHT22;3657;49.630;11.018;2023-05-07T12:58:20;26.80;87.30
7232;DHT22;3657;49.630;11.018;2023-05-07T13:00:48;27.00;88.10
7232;DHT22;3657;49.630;11.018;2023-05-07T13:03:23;27.00;84.50
7232;DHT22;3657;49.630;11.018;2023-05-07T13:05:50;26.90;88.80
7232;DHT22;3657;49.630;11.018;2023-05-07T13:08:24;26.60;80.00
7232;DHT22;3657;49.630;11.018;2023-05-07T13:10:51;26.50;89.20
7232;DHT22;3657;49.630;11.018;2023-05-07T13:13:20;26.70;89.30
7232;DHT22;3657;49.630;11.018;2023-05-07T13:15:46;26.90;89.80
7232;DHT22;3657;49.630;11.018;2023-05-07T13:18:13;27.00;84.80
7232;DHT22;3657;49.630;11.018;2023-05-07T13:20:40;27.00;81.90
7232;DHT22;3657;49.630;11.018;2023-05-07T13:23:06;27.30;89.90
7232;DHT22;3657;49.630;11.018;2023-05-07T13:25:33;27.50;88.30
7232;DHT22;3657;49.630;11.018;2023-05-07T13:28:00;27.50;86.00
7232;DHT22;3657;49.630;11.018;2023-05-07T13:30:29;27.50;87.90
7232;DHT22;3657;49.630;11.018;2023-05-07T13:32:56;27.40;81.70
7232;DHT22;3657;49.630;11.018;2023-05-07T13:35:22;27.50;87.00
7232;DHT22;3657;49.630;11.018;2023-05-07T13:37:49;27.60;82.40
7232;DHT22;3657;49.630;11.018;2023-05-07T13:40:17;27.80;88.40
7232;DHT22;3657;49.630;11.018;2023-05-07T13:42:44;27.80;80.60
7232;DHT22;3657;49.630;11.018;2023-05-07T13:45:11;28.00;83.00
7232;DHT22;3657;49.630;11.018;2023-05-07T13:47:40;28.00;86.30
7232;DHT22;3657;49.630;11.018;2023-05-07T13:50:08;27.70;80.20
7232;DHT22;3657;49.630;11.018;2023-05-07T13:52:35;27.40;75.70
7232;DHT22;3657;49.630;11.018;2023-05-07T13:55:02;27.50;84.00
7232;DHT22;3657;49.630;11.018;2023-05-07T13:57:29;27.60;83.10
7232;DHT22;3657;49.630;11.018;2023-05-07T13:59:55;27.70;72.40
7232;DHT22;3657;49.630;11.018;2023-05-07T14:02:22;27.60;84.40
7232;DHT22;3657;49.630;11.018;2023-05-07T14:04:50;27.50;80.20
7232;DHT22;3657;49.630;11.018;2023-05-07T14:07:16;27.60;84.60
7232;DHT22;3657;49.630;11.018;2023-05-07T14:09:43;27.90;85.00
7232;DHT22;3657;49.630;11.018;2023-05-07T14:12:10;28.10;84.30
7232;DHT22;3657;49.630;11.018;2023-05-07T14:14:37;28.30;80.10
7232;DHT22;3657;49.630;11.018;2023-05-07T14:17:04;28.00;80.80
7232;DHT22;3657;49.630;11.018;2023-05-07T14:19:30;27.90;75.40
7232;DHT22;3657;49.630;11.018;2023-05-07T14:21:58;27.90;82.20
7232;DHT22;3657;49.630;11.018;2023-05-07T14:24:25;28.00;78.50
7232;DHT22;3657;49.630;11.018;2023-05-07T14:26:52;27.90;70.70
7232;DHT22;3657;49.630;11.018;2023-05-07T14:29:18;27.40;79.50
7232;DHT22;3657;49.630;11.018;2023-05-07T14:31:45;27.50;81.00
7232;DHT22;3657;49.630;11.018;2023-05-07T14:34:12;27.70;82.30
7232;DHT22;3657;49.630;11.018;2023-05-07T14:36:38;27.70;75.00
7232;DHT22;3657;49.630;11.018;2023-05-07T14:39:06;27.70;77.80
7232;DHT22;3657;49.630;11.018;2023-05-07T14:41:33;27.60;80.10
7232;DHT22;3657;49.630;11.018;2023-05-07T14:44:00;27.50;80.70
7232;DHT22;3657;49.630;11.018;2023-05-07T14:46:29;27.40;77.50
7232;DHT22;3657;49.630;11.018;2023-05-07T14:48:56;27.20;76.30
7232;DHT22;3657;49.630;11.018;2023-05-07T14:51:23;27.20;80.90
7232;DHT22;3657;49.630;11.018;2023-05-07T14:53:51;26.60;74.10
7232;DHT22;3657;49.630;11.018;2023-05-07T14:56:19;26.60;81.50
7232;DHT22;3657;49.630;11.018;2023-05-07T14:58:46;26.70;79.50
7232;DHT22;3657;49.630;11.018;2023-05-07T15:01:13;26.90;80.20
7232;DHT22;3657;49.630;11.018;2023-05-07T15:03:40;27.10;82.40
7232;DHT22;3657;49.630;11.018;2023-05-07T15:06:07;27.20;82.10
7232;DHT22;3657;49.630;11.018;2023-05-07T15:08:33;27.30;81.70
7232;DHT22;3657;49.630;11.018;2023-05-07T15:11:00;27.20;78.30
7232;DHT22;3657;49.630;11.018;2023-05-07T15:13:28;27.00;80.70
7232;DHT22;3657;49.630;11.018;2023-05-07T15:15:55;27.00;79.80
7232;DHT22;3657;49.630;11.018;2023-05-07T15:18:22;26.90;72.70
7232;DHT22;3657;49.630;11.018;2023-05-07T15:20:48;26.80;81.20
7232;DHT22;3657;49.630;11.018;2023-05-07T15:23:15;26.70;74.40
7232;DHT22;3657;49.630;11.018;2023-05-07T15:25:42;26.60;78.30
7232;DHT22;3657;49.630;11.018;2023-05-07T15:28:08;26.50;79.50
7232;DHT22;3657;49.630;11.018;2023-05-07T15:30:37;26.70;80.30
7232;DHT22;3657;49.630;11.018;2023-05-07T15:33:04;26.80;76.60
7232;DHT22;3657;49.630;11.018;2023-05-07T15:35:31;26.80;76.80
7232;DHT22;3657;49.630;11.018;2023-05-07T15:37:57;26.60;76.50
7232;DHT22;3657;49.630;11.018;2023-05-07T15:40:24;26.70;81.50
7232;DHT22;3657;49.630;11.018;2023-05-07T15:42:54;26.60;79.70
7232;DHT22;3657;49.630;11.018;2023-05-07T15:45:21;26.70;79.80
7232;DHT22;3657;49.630;11.018;2023-05-07T15:47:49;26.80;81.50
7232;DHT22;3657;49.630;11.018;2023-05-07T15:50:16;26.80;81.00
7232;DHT22;3657;49.630;11.018;2023-05-07T15:52:42;26.80;81.20